sensor_id;sensor_type;location;lat;lon;timestamp;P1;durP1;ratioP1;P2;durP2;ratioP2
23282;SDS011;11810;51.178;3.878;2022-10-31T00:02:08;13.63;;;7.68;;
23282;SDS011;11810;51.178;3.878;2022-10-31T00:04:34;16.27;;;8.77;;
23282;SDS011;11810;51.178;3.878;2022-10-31T00:07:00;19.55;;;8.65;;
23282;SDS011;11810;51.178;3.878;2022-10-31T00:09:26;13.88;;;8.07;;
23282;SDS011;11810;51.178;3.878;2022-10-31T00:11:51;17.20;;;8.43;;
23282;SDS011;11810;51.178;3.878;2022-10-31T00:14:17;23.65;;;8.18;;
23282;SDS011;11810;51.178;3.878;2022-10-31T00:16:43;18.40;;;9.45;;
23282;SDS011;11810;51.178;3.878;2022-10-31T00:19:09;18.70;;;8.85;;
23282;SDS011;11810;51.178;3.878;2022-10-31T00:21:35;12.90;;;7.45;;
23282;SDS011;11810;51.178;3.878;2022-10-31T00:24:01;14.00;;;7.90;;
23282;SDS011;11810;51.178;3.878;2022-10-31T00:26:28;19.67;;;9.73;;
23282;SDS011;11810;51.178;3.878;2022-10-31T00:28:55;17.15;;;8.30;;
23282;SDS011;11810;51.178;3.878;2022-10-31T00:31:21;14.63;;;8.32;;
23282;SDS011;11810;51.178;3.878;2022-10-31T00:33:47;13.15;;;8.40;;
23282;SDS011;11810;51.178;3.878;2022-10-31T00:36:15;15.38;;;7.20;;
23282;SDS011;11810;51.178;3.878;2022-10-31T00:38:43;17.88;;;7.82;;
23282;SDS011;11810;51.178;3.878;2022-10-31T00:41:10;17.42;;;8.55;;
23282;SDS011;11810;51.178;3.878;2022-10-31T00:43:37;11.63;;;8.02;;
23282;SDS011;11810;51.178;3.878;2022-10-31T00:46:03;11.60;;;8.15;;
23282;SDS011;11810;51.178;3.878;2022-10-31T00:48:29;14.18;;;7.65;;
23282;SDS011;11810;51.178;3.878;2022-10-31T00:50:55;13.95;;;7.93;;
23282;SDS011;11810;51.178;3.878;2022-10-31T00:53:21;14.32;;;9.40;;
23282;SDS011;11810;51.178;3.878;2022-10-31T00:55:47;12.73;;;8.15;;
23282;SDS011;11810;51.178;3.878;2022-10-31T00:58:13;17.30;;;9.48;;
23282;SDS011;11810;51.178;3.878;2022-10-31T01:00:39;16.55;;;9.40;;
23282;SDS011;11810;51.178;3.878;2022-10-31T01:03:05;18.63;;;9.43;;
23282;SDS011;11810;51.178;3.878;2022-10-31T01:07:06;20.70;;;8.85;;
23282;SDS011;11810;51.178;3.878;2022-10-31T01:09:32;15.88;;;8.50;;
23282;SDS011;11810;51.178;3.878;2022-10-31T01:11:58;20.35;;;9.77;;
23282;SDS011;11810;51.178;3.878;2022-10-31T01:14:24;13.30;;;8.38;;
23282;SDS011;11810;51.178;3.878;2022-10-31T01:16:50;15.60;;;9.80;;
23282;SDS011;11810;51.178;3.878;2022-10-31T01:19:16;17.27;;;8.25;;
23282;SDS011;11810;51.178;3.878;2022-10-31T01:21:42;14.18;;;8.50;;
23282;SDS011;11810;51.178;3.878;2022-10-31T01:24:08;13.57;;;8.05;;
23282;SDS011;11810;51.178;3.878;2022-10-31T01:26:33;14.77;;;7.78;;
23282;SDS011;11810;51.178;3.878;2022-10-31T01:29:00;11.50;;;8.38;;
23282;SDS011;11810;51.178;3.878;2022-10-31T01:31:31;14.75;;;9.25;;
23282;SDS011;11810;51.178;3.878;2022-10-31T01:33:59;14.93;;;8.35;;
23282;SDS011;11810;51.178;3.878;2022-10-31T01:36:30;14.10;;;8.90;;
23282;SDS011;11810;51.178;3.878;2022-10-31T01:38:59;21.00;;;9.65;;
23282;SDS011;11810;51.178;3.878;2022-10-31T01:41:30;13.90;;;8.40;;
23282;SDS011;11810;51.178;3.878;2022-10-31T01:43:58;16.08;;;8.70;;
23282;SDS011;11810;51.178;3.878;2022-10-31T01:46:36;15.55;;;7.88;;
23282;SDS011;11810;51.178;3.878;2022-10-31T01:49:08;17.52;;;7.93;;
23282;SDS011;11810;51.178;3.878;2022-10-31T01:51:39;15.82;;;8.80;;
23282;SDS011;11810;51.178;3.878;2022-10-31T01:54:12;15.15;;;8.27;;
23282;SDS011;11810;51.178;3.878;2022-10-31T01:56:43;17.05;;;7.80;;
23282;SDS011;11810;51.178;3.878;2022-10-31T01:59:13;12.85;;;8.15;;
23282;SDS011;11810;51.178;3.878;2022-10-31T02:01:42;15.85;;;8.60;;
23282;SDS011;11810;51.178;3.878;2022-10-31T02:04:08;17.45;;;10.65;;
23282;SDS011;11810;51.178;3.878;2022-10-31T02:06:38;14.23;;;9.57;;
23282;SDS011;11810;51.178;3.878;2022-10-31T02:09:11;20.20;;;11.00;;
23282;SDS011;11810;51.178;3.878;2022-10-31T02:11:39;25.90;;;13.32;;
23282;SDS011;11810;51.178;3.878;2022-10-31T02:15:16;22.30;;;14.27;;
23282;SDS011;11810;51.178;3.878;2022-10-31T02:17:42;28.00;;;14.93;;
23282;SDS011;11810;51.178;3.878;2022-10-31T02:22:48;18.23;;;12.55;;
23282;SDS011;11810;51.178;3.878;2022-10-31T02:25:59;22.58;;;11.23;;
23282;SDS011;11810;51.178;3.878;2022-10-31T02:32:02;19.02;;;11.13;;
23282;SDS011;11810;51.178;3.878;2022-10-31T02:34:21;14.40;;;9.70;;
23282;SDS011;11810;51.178;3.878;2022-10-31T02:39:34;20.45;;;10.07;;
23282;SDS011;11810;51.178;3.878;2022-10-31T02:42:09;19.38;;;10.07;;
23282;SDS011;11810;51.178;3.878;2022-10-31T02:45:00;16.15;;;9.48;;
23282;SDS011;11810;51.178;3.878;2022-10-31T02:47:37;13.52;;;9.20;;
23282;SDS011;11810;51.178;3.878;2022-10-31T02:52:33;16.17;;;8.77;;
23282;SDS011;11810;51.178;3.878;2022-10-31T02:55:39;11.00;;;8.48;;
23282;SDS011;11810;51.178;3.878;2022-10-31T03:03:51;23.13;;;9.45;;
23282;SDS011;11810;51.178;3.878;2022-10-31T03:06:35;13.35;;;9.68;;
23282;SDS011;11810;51.178;3.878;2022-10-31T03:09:18;17.50;;;9.55;;
23282;SDS011;11810;51.178;3.878;2022-10-31T03:12:10;14.98;;;9.30;;
23282;SDS011;11810;51.178;3.878;2022-10-31T03:19:27;17.02;;;10.68;;
23282;SDS011;11810;51.178;3.878;2022-10-31T03:22:28;16.23;;;10.70;;
23282;SDS011;11810;51.178;3.878;2022-10-31T03:24:56;17.40;;;10.35;;
23282;SDS011;11810;51.178;3.878;2022-10-31T03:27:25;17.92;;;10.65;;
23282;SDS011;11810;51.178;3.878;2022-10-31T03:29:55;21.10;;;10.77;;
23282;SDS011;11810;51.178;3.878;2022-10-31T03:32:45;21.50;;;11.63;;
23282;SDS011;11810;51.178;3.878;2022-10-31T03:35:13;21.70;;;11.80;;
23282;SDS011;11810;51.178;3.878;2022-10-31T03:37:42;16.13;;;10.65;;
23282;SDS011;11810;51.178;3.878;2022-10-31T03:40:31;19.10;;;11.63;;
23282;SDS011;11810;51.178;3.878;2022-10-31T03:43:00;20.65;;;12.50;;
23282;SDS011;11810;51.178;3.878;2022-10-31T03:45:32;21.90;;;12.60;;
23282;SDS011;11810;51.178;3.878;2022-10-31T03:48:05;18.48;;;11.00;;
23282;SDS011;11810;51.178;3.878;2022-10-31T03:50:35;19.17;;;11.15;;
23282;SDS011;11810;51.178;3.878;2022-10-31T03:53:26;22.67;;;12.13;;
23282;SDS011;11810;51.178;3.878;2022-10-31T03:56:01;20.50;;;11.48;;
23282;SDS011;11810;51.178;3.878;2022-10-31T04:00:32;25.05;;;12.95;;
23282;SDS011;11810;51.178;3.878;2022-10-31T04:03:05;32.88;;;14.63;;
23282;SDS011;11810;51.178;3.878;2022-10-31T04:05:34;42.70;;;14.88;;
23282;SDS011;11810;51.178;3.878;2022-10-31T04:08:03;24.48;;;14.25;;
23282;SDS011;11810;51.178;3.878;2022-10-31T04:10:32;33.58;;;15.23;;
23282;SDS011;11810;51.178;3.878;2022-10-31T04:13:03;28.30;;;15.00;;
23282;SDS011;11810;51.178;3.878;2022-10-31T04:15:33;27.00;;;13.55;;
23282;SDS011;11810;51.178;3.878;2022-10-31T04:18:01;27.80;;;13.52;;
23282;SDS011;11810;51.178;3.878;2022-10-31T04:20:34;33.88;;;15.50;;
23282;SDS011;11810;51.178;3.878;2022-10-31T04:23:01;24.25;;;13.93;;
23282;SDS011;11810;51.178;3.878;2022-10-31T04:25:28;21.27;;;12.65;;
23282;SDS011;11810;51.178;3.878;2022-10-31T04:27:54;24.23;;;15.02;;
23282;SDS011;11810;51.178;3.878;2022-10-31T04:30:20;36.42;;;16.70;;
23282;SDS011;11810;51.178;3.878;2022-10-31T04:32:46;28.73;;;14.88;;
23282;SDS011;11810;51.178;3.878;2022-10-31T04:35:13;26.08;;;13.85;;
23282;SDS011;11810;51.178;3.878;2022-10-31T04:37:39;27.13;;;13.80;;
23282;SDS011;11810;51.178;3.878;2022-10-31T04:40:05;30.52;;;15.50;;
23282;SDS011;11810;51.178;3.878;2022-10-31T04:42:31;34.45;;;16.45;;
23282;SDS011;11810;51.178;3.878;2022-10-31T04:44:57;28.08;;;14.40;;
23282;SDS011;11810;51.178;3.878;2022-10-31T04:47:23;26.98;;;13.13;;
23282;SDS011;11810;51.178;3.878;2022-10-31T04:49:49;30.77;;;14.35;;
23282;SDS011;11810;51.178;3.878;2022-10-31T04:52:15;26.38;;;12.90;;
23282;SDS011;11810;51.178;3.878;2022-10-31T04:54:40;27.48;;;13.88;;
23282;SDS011;11810;51.178;3.878;2022-10-31T04:57:06;24.92;;;13.77;;
23282;SDS011;11810;51.178;3.878;2022-10-31T04:59:32;24.55;;;12.45;;
23282;SDS011;11810;51.178;3.878;2022-10-31T05:01:58;26.60;;;13.80;;
23282;SDS011;11810;51.178;3.878;2022-10-31T05:04:24;25.58;;;14.27;;
23282;SDS011;11810;51.178;3.878;2022-10-31T05:06:50;24.83;;;13.50;;
23282;SDS011;11810;51.178;3.878;2022-10-31T05:09:16;22.73;;;12.77;;
23282;SDS011;11810;51.178;3.878;2022-10-31T05:11:42;22.77;;;13.98;;
23282;SDS011;11810;51.178;3.878;2022-10-31T05:14:08;24.52;;;14.48;;
23282;SDS011;11810;51.178;3.878;2022-10-31T05:16:34;29.75;;;14.82;;
23282;SDS011;11810;51.178;3.878;2022-10-31T05:19:00;20.35;;;11.68;;
23282;SDS011;11810;51.178;3.878;2022-10-31T05:21:25;24.92;;;12.52;;
23282;SDS011;11810;51.178;3.878;2022-10-31T05:23:51;27.88;;;12.52;;
23282;SDS011;11810;51.178;3.878;2022-10-31T05:26:17;21.75;;;11.98;;
23282;SDS011;11810;51.178;3.878;2022-10-31T05:28:43;18.65;;;9.80;;
23282;SDS011;11810;51.178;3.878;2022-10-31T05:31:09;28.25;;;9.40;;
23282;SDS011;11810;51.178;3.878;2022-10-31T05:33:35;57.47;;;9.95;;
23282;SDS011;11810;51.178;3.878;2022-10-31T05:36:01;145.27;;;13.05;;
23282;SDS011;11810;51.178;3.878;2022-10-31T05:38:26;11.23;;;7.97;;
23282;SDS011;11810;51.178;3.878;2022-10-31T05:40:55;13.07;;;8.25;;
23282;SDS011;11810;51.178;3.878;2022-10-31T05:43:28;18.20;;;9.45;;
23282;SDS011;11810;51.178;3.878;2022-10-31T05:45:55;117.75;;;15.85;;
23282;SDS011;11810;51.178;3.878;2022-10-31T05:48:21;100.90;;;15.52;;
23282;SDS011;11810;51.178;3.878;2022-10-31T05:50:48;36.97;;;12.75;;
23282;SDS011;11810;51.178;3.878;2022-10-31T05:53:14;30.88;;;11.35;;
23282;SDS011;11810;51.178;3.878;2022-10-31T05:55:41;18.35;;;10.93;;
23282;SDS011;11810;51.178;3.878;2022-10-31T05:58:08;20.52;;;11.55;;
23282;SDS011;11810;51.178;3.878;2022-10-31T06:00:35;22.45;;;11.20;;
23282;SDS011;11810;51.178;3.878;2022-10-31T06:03:05;22.30;;;13.68;;
23282;SDS011;11810;51.178;3.878;2022-10-31T06:05:33;39.08;;;20.33;;
23282;SDS011;11810;51.178;3.878;2022-10-31T06:08:00;32.13;;;18.17;;
23282;SDS011;11810;51.178;3.878;2022-10-31T06:10:26;21.20;;;14.52;;
23282;SDS011;11810;51.178;3.878;2022-10-31T06:12:53;21.90;;;14.35;;
23282;SDS011;11810;51.178;3.878;2022-10-31T06:15:19;20.50;;;12.07;;
23282;SDS011;11810;51.178;3.878;2022-10-31T06:19:54;21.60;;;11.18;;
23282;SDS011;11810;51.178;3.878;2022-10-31T06:22:20;15.52;;;10.77;;
23282;SDS011;11810;51.178;3.878;2022-10-31T06:26:54;41.33;;;20.88;;
23282;SDS011;11810;51.178;3.878;2022-10-31T06:29:20;29.60;;;17.95;;
23282;SDS011;11810;51.178;3.878;2022-10-31T06:31:46;25.80;;;16.40;;
23282;SDS011;11810;51.178;3.878;2022-10-31T06:34:12;26.35;;;16.10;;
23282;SDS011;11810;51.178;3.878;2022-10-31T06:36:37;32.28;;;17.63;;
23282;SDS011;11810;51.178;3.878;2022-10-31T06:39:03;39.13;;;21.52;;
23282;SDS011;11810;51.178;3.878;2022-10-31T06:41:29;49.58;;;26.63;;
23282;SDS011;11810;51.178;3.878;2022-10-31T06:43:55;58.58;;;25.50;;
23282;SDS011;11810;51.178;3.878;2022-10-31T06:46:21;52.40;;;22.88;;
23282;SDS011;11810;51.178;3.878;2022-10-31T06:48:47;38.85;;;20.50;;
23282;SDS011;11810;51.178;3.878;2022-10-31T06:51:13;30.83;;;17.48;;
23282;SDS011;11810;51.178;3.878;2022-10-31T06:53:39;33.90;;;19.80;;
23282;SDS011;11810;51.178;3.878;2022-10-31T06:56:05;33.95;;;19.17;;
23282;SDS011;11810;51.178;3.878;2022-10-31T06:58:31;36.17;;;20.17;;
23282;SDS011;11810;51.178;3.878;2022-10-31T07:00:58;51.95;;;23.92;;
23282;SDS011;11810;51.178;3.878;2022-10-31T07:03:25;42.55;;;21.95;;
23282;SDS011;11810;51.178;3.878;2022-10-31T07:05:51;38.92;;;20.48;;
23282;SDS011;11810;51.178;3.878;2022-10-31T07:08:19;43.78;;;21.20;;
23282;SDS011;11810;51.178;3.878;2022-10-31T07:10:50;32.78;;;18.63;;
23282;SDS011;11810;51.178;3.878;2022-10-31T07:13:20;35.20;;;19.88;;
23282;SDS011;11810;51.178;3.878;2022-10-31T07:15:50;41.35;;;20.45;;
23282;SDS011;11810;51.178;3.878;2022-10-31T07:18:18;56.40;;;24.40;;
23282;SDS011;11810;51.178;3.878;2022-10-31T07:20:44;42.10;;;19.67;;
23282;SDS011;11810;51.178;3.878;2022-10-31T07:23:10;29.88;;;17.67;;
23282;SDS011;11810;51.178;3.878;2022-10-31T07:25:36;30.23;;;17.20;;
23282;SDS011;11810;51.178;3.878;2022-10-31T07:28:03;39.88;;;19.85;;
23282;SDS011;11810;51.178;3.878;2022-10-31T07:30:29;25.17;;;16.95;;
23282;SDS011;11810;51.178;3.878;2022-10-31T07:32:55;31.00;;;18.05;;
23282;SDS011;11810;51.178;3.878;2022-10-31T07:35:22;36.75;;;18.65;;
23282;SDS011;11810;51.178;3.878;2022-10-31T07:37:50;38.05;;;21.05;;
23282;SDS011;11810;51.178;3.878;2022-10-31T07:40:17;40.15;;;22.13;;
23282;SDS011;11810;51.178;3.878;2022-10-31T07:42:46;40.28;;;24.00;;
23282;SDS011;11810;51.178;3.878;2022-10-31T07:45:16;51.55;;;24.17;;
23282;SDS011;11810;51.178;3.878;2022-10-31T07:47:44;42.38;;;21.85;;
23282;SDS011;11810;51.178;3.878;2022-10-31T07:50:16;49.65;;;24.23;;
23282;SDS011;11810;51.178;3.878;2022-10-31T07:52:44;42.08;;;21.70;;
23282;SDS011;11810;51.178;3.878;2022-10-31T07:55:10;38.80;;;22.48;;
23282;SDS011;11810;51.178;3.878;2022-10-31T07:57:37;44.58;;;22.58;;
23282;SDS011;11810;51.178;3.878;2022-10-31T08:00:04;44.28;;;22.70;;
23282;SDS011;11810;51.178;3.878;2022-10-31T08:02:31;45.05;;;23.48;;
23282;SDS011;11810;51.178;3.878;2022-10-31T08:04:57;47.15;;;23.42;;
23282;SDS011;11810;51.178;3.878;2022-10-31T08:07:24;48.15;;;23.23;;
23282;SDS011;11810;51.178;3.878;2022-10-31T08:09:51;43.25;;;22.08;;
23282;SDS011;11810;51.178;3.878;2022-10-31T08:12:17;38.42;;;21.60;;
23282;SDS011;11810;51.178;3.878;2022-10-31T08:14:43;36.05;;;20.38;;
23282;SDS011;11810;51.178;3.878;2022-10-31T08:17:09;41.33;;;23.00;;
23282;SDS011;11810;51.178;3.878;2022-10-31T08:19:35;34.47;;;20.50;;
23282;SDS011;11810;51.178;3.878;2022-10-31T08:22:01;45.13;;;21.58;;
23282;SDS011;11810;51.178;3.878;2022-10-31T08:24:27;41.40;;;21.40;;
23282;SDS011;11810;51.178;3.878;2022-10-31T08:26:53;39.40;;;22.23;;
23282;SDS011;11810;51.178;3.878;2022-10-31T08:29:19;32.95;;;19.88;;
23282;SDS011;11810;51.178;3.878;2022-10-31T08:31:45;36.00;;;19.60;;
23282;SDS011;11810;51.178;3.878;2022-10-31T08:34:11;36.22;;;20.02;;
23282;SDS011;11810;51.178;3.878;2022-10-31T08:36:37;30.00;;;19.75;;
23282;SDS011;11810;51.178;3.878;2022-10-31T08:39:03;35.03;;;19.00;;
23282;SDS011;11810;51.178;3.878;2022-10-31T08:41:29;32.95;;;20.40;;
23282;SDS011;11810;51.178;3.878;2022-10-31T08:43:55;27.90;;;19.27;;
23282;SDS011;11810;51.178;3.878;2022-10-31T08:46:21;29.98;;;19.02;;
23282;SDS011;11810;51.178;3.878;2022-10-31T08:48:48;28.52;;;17.77;;
23282;SDS011;11810;51.178;3.878;2022-10-31T08:51:14;28.25;;;17.52;;
23282;SDS011;11810;51.178;3.878;2022-10-31T08:53:40;25.77;;;16.42;;
23282;SDS011;11810;51.178;3.878;2022-10-31T08:56:06;28.33;;;16.77;;
23282;SDS011;11810;51.178;3.878;2022-10-31T08:58:32;23.17;;;17.00;;
23282;SDS011;11810;51.178;3.878;2022-10-31T09:00:58;29.77;;;17.27;;
23282;SDS011;11810;51.178;3.878;2022-10-31T09:03:26;31.15;;;17.15;;
23282;SDS011;11810;51.178;3.878;2022-10-31T09:05:55;26.38;;;16.85;;
23282;SDS011;11810;51.178;3.878;2022-10-31T09:08:22;26.05;;;17.13;;
23282;SDS011;11810;51.178;3.878;2022-10-31T09:10:48;26.52;;;17.02;;
23282;SDS011;11810;51.178;3.878;2022-10-31T09:13:15;28.83;;;16.92;;
23282;SDS011;11810;51.178;3.878;2022-10-31T09:15:43;26.88;;;16.92;;
23282;SDS011;11810;51.178;3.878;2022-10-31T09:18:11;26.00;;;17.08;;
23282;SDS011;11810;51.178;3.878;2022-10-31T09:20:38;24.42;;;16.95;;
23282;SDS011;11810;51.178;3.878;2022-10-31T09:23:09;23.75;;;16.27;;
23282;SDS011;11810;51.178;3.878;2022-10-31T09:25:43;27.17;;;16.70;;
23282;SDS011;11810;51.178;3.878;2022-10-31T09:28:11;26.35;;;18.40;;
23282;SDS011;11810;51.178;3.878;2022-10-31T09:30:38;28.65;;;18.10;;
23282;SDS011;11810;51.178;3.878;2022-10-31T09:33:06;33.42;;;19.23;;
23282;SDS011;11810;51.178;3.878;2022-10-31T09:35:34;34.58;;;21.85;;
23282;SDS011;11810;51.178;3.878;2022-10-31T09:38:04;34.08;;;20.67;;
23282;SDS011;11810;51.178;3.878;2022-10-31T09:40:40;30.08;;;18.10;;
23282;SDS011;11810;51.178;3.878;2022-10-31T09:43:13;25.42;;;17.60;;
23282;SDS011;11810;51.178;3.878;2022-10-31T09:46:04;26.75;;;16.77;;
23282;SDS011;11810;51.178;3.878;2022-10-31T09:51:25;26.20;;;16.70;;
23282;SDS011;11810;51.178;3.878;2022-10-31T09:54:15;25.33;;;17.02;;
23282;SDS011;11810;51.178;3.878;2022-10-31T09:56:59;26.33;;;16.57;;
23282;SDS011;11810;51.178;3.878;2022-10-31T09:59:43;27.27;;;17.48;;
23282;SDS011;11810;51.178;3.878;2022-10-31T10:10:16;28.73;;;17.67;;
23282;SDS011;11810;51.178;3.878;2022-10-31T10:26:02;28.05;;;17.73;;
23282;SDS011;11810;51.178;3.878;2022-10-31T10:28:43;26.02;;;16.77;;
23282;SDS011;11810;51.178;3.878;2022-10-31T10:31:21;26.25;;;18.23;;
23282;SDS011;11810;51.178;3.878;2022-10-31T10:36:50;30.67;;;18.90;;
23282;SDS011;11810;51.178;3.878;2022-10-31T10:42:33;27.25;;;18.40;;
23282;SDS011;11810;51.178;3.878;2022-10-31T10:45:19;29.83;;;17.35;;
23282;SDS011;11810;51.178;3.878;2022-10-31T10:48:11;28.15;;;17.38;;
23282;SDS011;11810;51.178;3.878;2022-10-31T10:50:46;24.98;;;15.60;;
23282;SDS011;11810;51.178;3.878;2022-10-31T10:58:29;21.33;;;13.60;;
23282;SDS011;11810;51.178;3.878;2022-10-31T11:00:55;22.58;;;13.52;;
23282;SDS011;11810;51.178;3.878;2022-10-31T11:03:21;18.20;;;12.57;;
23282;SDS011;11810;51.178;3.878;2022-10-31T11:05:48;18.70;;;12.77;;
23282;SDS011;11810;51.178;3.878;2022-10-31T11:08:27;19.65;;;13.55;;
23282;SDS011;11810;51.178;3.878;2022-10-31T11:13:51;22.00;;;12.82;;
23282;SDS011;11810;51.178;3.878;2022-10-31T11:21:37;17.45;;;12.95;;
23282;SDS011;11810;51.178;3.878;2022-10-31T11:24:09;21.60;;;13.30;;
23282;SDS011;11810;51.178;3.878;2022-10-31T11:26:49;18.58;;;12.85;;
23282;SDS011;11810;51.178;3.878;2022-10-31T11:29:22;22.40;;;12.45;;
23282;SDS011;11810;51.178;3.878;2022-10-31T11:31:55;18.98;;;12.45;;
23282;SDS011;11810;51.178;3.878;2022-10-31T11:34:35;22.38;;;12.98;;
23282;SDS011;11810;51.178;3.878;2022-10-31T11:37:15;22.15;;;14.43;;
23282;SDS011;11810;51.178;3.878;2022-10-31T11:39:46;23.45;;;14.07;;
23282;SDS011;11810;51.178;3.878;2022-10-31T11:42:22;26.33;;;14.07;;
23282;SDS011;11810;51.178;3.878;2022-10-31T11:44:51;20.02;;;14.50;;
23282;SDS011;11810;51.178;3.878;2022-10-31T11:47:21;23.15;;;13.02;;
23282;SDS011;11810;51.178;3.878;2022-10-31T11:49:52;23.92;;;14.15;;
23282;SDS011;11810;51.178;3.878;2022-10-31T11:52:25;19.95;;;14.05;;
23282;SDS011;11810;51.178;3.878;2022-10-31T11:54:59;24.88;;;13.23;;
23282;SDS011;11810;51.178;3.878;2022-10-31T11:57:45;21.35;;;12.50;;
23282;SDS011;11810;51.178;3.878;2022-10-31T12:00:55;20.02;;;12.60;;
23282;SDS011;11810;51.178;3.878;2022-10-31T12:05:58;20.75;;;10.68;;
23282;SDS011;11810;51.178;3.878;2022-10-31T12:08:36;20.40;;;11.00;;
23282;SDS011;11810;51.178;3.878;2022-10-31T12:19:28;20.40;;;11.48;;
23282;SDS011;11810;51.178;3.878;2022-10-31T12:24:59;24.75;;;12.13;;
23282;SDS011;11810;51.178;3.878;2022-10-31T12:50:01;28.95;;;14.27;;
23282;SDS011;11810;51.178;3.878;2022-10-31T12:57:46;29.85;;;14.50;;
23282;SDS011;11810;51.178;3.878;2022-10-31T13:00:19;25.08;;;15.02;;
23282;SDS011;11810;51.178;3.878;2022-10-31T13:02:53;31.73;;;15.93;;
23282;SDS011;11810;51.178;3.878;2022-10-31T13:07:59;20.75;;;13.77;;
23282;SDS011;11810;51.178;3.878;2022-10-31T13:13:30;25.77;;;14.38;;
23282;SDS011;11810;51.178;3.878;2022-10-31T13:16:24;32.03;;;14.82;;
23282;SDS011;11810;51.178;3.878;2022-10-31T13:21:39;23.30;;;14.77;;
23282;SDS011;11810;51.178;3.878;2022-10-31T13:24:19;30.50;;;14.93;;
23282;SDS011;11810;51.178;3.878;2022-10-31T13:26:52;28.65;;;16.50;;
23282;SDS011;11810;51.178;3.878;2022-10-31T13:31:58;26.58;;;14.38;;
23282;SDS011;11810;51.178;3.878;2022-10-31T13:35:08;25.40;;;15.30;;
23282;SDS011;11810;51.178;3.878;2022-10-31T13:43:04;27.88;;;15.68;;
23282;SDS011;11810;51.178;3.878;2022-10-31T13:45:54;23.25;;;14.13;;
23282;SDS011;11810;51.178;3.878;2022-10-31T13:50:56;29.48;;;15.65;;
23282;SDS011;11810;51.178;3.878;2022-10-31T13:53:38;26.67;;;14.80;;
23282;SDS011;11810;51.178;3.878;2022-10-31T13:58:33;29.42;;;14.63;;
23282;SDS011;11810;51.178;3.878;2022-10-31T14:03:35;25.73;;;14.85;;
23282;SDS011;11810;51.178;3.878;2022-10-31T14:06:02;29.65;;;14.52;;
23282;SDS011;11810;51.178;3.878;2022-10-31T14:08:30;50.95;;;30.23;;
23282;SDS011;11810;51.178;3.878;2022-10-31T14:11:00;38.22;;;24.08;;
23282;SDS011;11810;51.178;3.878;2022-10-31T14:13:38;28.55;;;17.17;;
23282;SDS011;11810;51.178;3.878;2022-10-31T14:16:18;31.60;;;15.55;;
23282;SDS011;11810;51.178;3.878;2022-10-31T14:18:51;29.90;;;17.15;;
23282;SDS011;11810;51.178;3.878;2022-10-31T14:21:43;33.35;;;17.27;;
23282;SDS011;11810;51.178;3.878;2022-10-31T14:26:55;31.02;;;17.92;;
23282;SDS011;11810;51.178;3.878;2022-10-31T14:34:34;33.67;;;17.65;;
23282;SDS011;11810;51.178;3.878;2022-10-31T14:53:15;37.55;;;18.20;;
23282;SDS011;11810;51.178;3.878;2022-10-31T14:55:47;30.63;;;18.00;;
23282;SDS011;11810;51.178;3.878;2022-10-31T14:58:19;30.45;;;18.40;;
23282;SDS011;11810;51.178;3.878;2022-10-31T15:01:15;36.70;;;18.02;;
23282;SDS011;11810;51.178;3.878;2022-10-31T15:03:44;35.30;;;19.50;;
23282;SDS011;11810;51.178;3.878;2022-10-31T15:06:15;36.00;;;19.08;;
23282;SDS011;11810;51.178;3.878;2022-10-31T15:08:44;28.55;;;18.05;;
23282;SDS011;11810;51.178;3.878;2022-10-31T15:11:16;32.72;;;18.75;;
23282;SDS011;11810;51.178;3.878;2022-10-31T15:13:49;35.92;;;19.52;;
23282;SDS011;11810;51.178;3.878;2022-10-31T15:16:23;39.38;;;18.85;;
23282;SDS011;11810;51.178;3.878;2022-10-31T15:18:56;33.08;;;18.23;;
23282;SDS011;11810;51.178;3.878;2022-10-31T15:21:26;38.05;;;20.80;;
23282;SDS011;11810;51.178;3.878;2022-10-31T15:23:54;35.40;;;20.42;;
23282;SDS011;11810;51.178;3.878;2022-10-31T15:26:39;40.70;;;19.55;;
23282;SDS011;11810;51.178;3.878;2022-10-31T15:29:12;38.47;;;20.07;;
23282;SDS011;11810;51.178;3.878;2022-10-31T15:31:48;34.25;;;20.33;;
23282;SDS011;11810;51.178;3.878;2022-10-31T15:34:41;39.65;;;21.88;;
23282;SDS011;11810;51.178;3.878;2022-10-31T15:37:18;31.60;;;19.73;;
23282;SDS011;11810;51.178;3.878;2022-10-31T15:39:45;33.80;;;20.33;;
23282;SDS011;11810;51.178;3.878;2022-10-31T15:44:44;40.40;;;23.25;;
23282;SDS011;11810;51.178;3.878;2022-10-31T15:47:16;97.35;;;50.38;;
23282;SDS011;11810;51.178;3.878;2022-10-31T15:50:03;53.40;;;28.48;;
23282;SDS011;11810;51.178;3.878;2022-10-31T15:52:42;34.00;;;19.45;;
23282;SDS011;11810;51.178;3.878;2022-10-31T15:57:39;33.50;;;19.05;;
23282;SDS011;11810;51.178;3.878;2022-10-31T16:00:20;35.72;;;21.20;;
23282;SDS011;11810;51.178;3.878;2022-10-31T16:02:50;46.20;;;21.38;;
23282;SDS011;11810;51.178;3.878;2022-10-31T16:05:31;43.20;;;21.27;;
23282;SDS011;11810;51.178;3.878;2022-10-31T16:08:02;38.97;;;18.75;;
23282;SDS011;11810;51.178;3.878;2022-10-31T16:10:28;40.08;;;17.63;;
23282;SDS011;11810;51.178;3.878;2022-10-31T16:13:00;35.15;;;18.25;;
23282;SDS011;11810;51.178;3.878;2022-10-31T16:15:27;32.95;;;20.65;;
23282;SDS011;11810;51.178;3.878;2022-10-31T16:17:53;35.42;;;18.45;;
23282;SDS011;11810;51.178;3.878;2022-10-31T16:20:20;40.78;;;21.38;;
23282;SDS011;11810;51.178;3.878;2022-10-31T16:22:50;45.20;;;25.35;;
23282;SDS011;11810;51.178;3.878;2022-10-31T16:27:52;53.22;;;25.83;;
23282;SDS011;11810;51.178;3.878;2022-10-31T16:32:54;47.35;;;21.60;;
23282;SDS011;11810;51.178;3.878;2022-10-31T16:35:27;48.45;;;25.92;;
23282;SDS011;11810;51.178;3.878;2022-10-31T16:38:00;51.00;;;27.30;;
23282;SDS011;11810;51.178;3.878;2022-10-31T16:40:27;48.55;;;24.98;;
23282;SDS011;11810;51.178;3.878;2022-10-31T16:42:55;39.50;;;20.48;;
23282;SDS011;11810;51.178;3.878;2022-10-31T16:45:24;40.75;;;19.70;;
23282;SDS011;11810;51.178;3.878;2022-10-31T16:48:01;32.13;;;16.25;;
23282;SDS011;11810;51.178;3.878;2022-10-31T16:50:34;47.40;;;22.63;;
23282;SDS011;11810;51.178;3.878;2022-10-31T16:53:02;38.70;;;19.40;;
23282;SDS011;11810;51.178;3.878;2022-10-31T16:55:28;35.13;;;19.38;;
23282;SDS011;11810;51.178;3.878;2022-10-31T16:57:55;32.55;;;17.85;;
23282;SDS011;11810;51.178;3.878;2022-10-31T17:00:22;29.92;;;15.85;;
23282;SDS011;11810;51.178;3.878;2022-10-31T17:02:51;29.50;;;16.40;;
23282;SDS011;11810;51.178;3.878;2022-10-31T17:05:19;37.50;;;18.75;;
23282;SDS011;11810;51.178;3.878;2022-10-31T17:07:47;34.28;;;20.83;;
23282;SDS011;11810;51.178;3.878;2022-10-31T17:10:14;43.33;;;19.92;;
23282;SDS011;11810;51.178;3.878;2022-10-31T17:12:41;32.67;;;19.67;;
23282;SDS011;11810;51.178;3.878;2022-10-31T17:15:22;32.17;;;15.20;;
23282;SDS011;11810;51.178;3.878;2022-10-31T17:17:50;31.20;;;15.05;;
23282;SDS011;11810;51.178;3.878;2022-10-31T17:22:47;27.13;;;14.27;;
23282;SDS011;11810;51.178;3.878;2022-10-31T17:25:16;34.67;;;16.73;;
23282;SDS011;11810;51.178;3.878;2022-10-31T17:27:44;27.65;;;14.10;;
23282;SDS011;11810;51.178;3.878;2022-10-31T17:30:10;31.40;;;16.63;;
23282;SDS011;11810;51.178;3.878;2022-10-31T17:32:38;41.38;;;22.45;;
23282;SDS011;11810;51.178;3.878;2022-10-31T17:35:05;35.03;;;21.70;;
23282;SDS011;11810;51.178;3.878;2022-10-31T17:37:31;29.48;;;14.50;;
23282;SDS011;11810;51.178;3.878;2022-10-31T17:39:57;35.70;;;15.77;;